createdAt,value
2023-04-13T00:02:27.935Z,19.20
2023-04-13T00:05:00.048Z,16.65
2023-04-13T00:07:30.197Z,13.48
2023-04-13T00:10:00.061Z,10.23
2023-04-13T00:12:29.820Z,19.00
2023-04-13T00:14:59.636Z,18.42
2023-04-13T00:17:29.495Z,18.88
2023-04-13T00:19:59.645Z,14.00
2023-04-13T00:22:32.664Z,9.45
2023-04-13T00:25:03.874Z,11.95
2023-04-13T00:27:33.613Z,16.48
2023-04-13T00:30:06.060Z,17.15
2023-04-13T00:32:35.883Z,18.70
2023-04-13T00:35:06.208Z,17.85
2023-04-13T00:37:38.881Z,18.10
2023-04-13T00:40:13.370Z,25.75
2023-04-13T00:42:50.281Z,23.45
2023-04-13T00:45:25.757Z,25.10
2023-04-13T00:50:35.604Z,23.20
2023-04-13T00:53:09.954Z,20.08
2023-04-13T00:55:43.867Z,23.73
2023-04-13T00:58:16.278Z,21.13
2023-04-13T01:00:49.577Z,28.88
2023-04-13T01:03:26.680Z,20.17
2023-04-13T01:06:08.431Z,22.50
2023-04-13T01:08:44.076Z,20.13
2023-04-13T01:11:33.852Z,26.13
2023-04-13T01:14:19.918Z,20.73
2023-04-13T01:16:53.358Z,20.23
2023-04-13T01:19:44.148Z,20.83
2023-04-13T01:22:17.048Z,22.38
2023-04-13T01:25:02.976Z,23.55
2023-04-13T01:30:07.972Z,30.65
2023-04-13T01:32:41.375Z,27.63
2023-04-13T01:35:12.622Z,24.00
2023-04-13T01:37:48.031Z,31.35
2023-04-13T01:42:49.270Z,24.17
2023-04-13T01:45:24.172Z,24.13
2023-04-13T01:48:14.421Z,22.83
2023-04-13T01:50:45.733Z,30.20
2023-04-13T01:53:18.888Z,27.45
2023-04-13T01:55:51.539Z,31.65
2023-04-13T01:58:21.244Z,25.75
2023-04-13T02:00:52.240Z,20.70
2023-04-13T02:03:24.773Z,21.73
2023-04-13T02:05:55.199Z,18.92
2023-04-13T02:08:25.234Z,15.10
2023-04-13T02:10:54.946Z,12.23
2023-04-13T02:13:25.167Z,15.80
2023-04-13T02:15:55.633Z,12.55
2023-04-13T02:18:27.102Z,17.17
2023-04-13T02:21:13.790Z,15.15
2023-04-13T02:23:43.731Z,17.85
2023-04-13T02:26:20.341Z,15.95
2023-04-13T02:28:52.843Z,10.95
2023-04-13T02:31:24.770Z,12.38
2023-04-13T02:33:55.204Z,17.58
2023-04-13T02:36:26.356Z,12.00
2023-04-13T02:38:56.578Z,11.27
2023-04-13T02:41:27.532Z,11.18
2023-04-13T02:43:57.925Z,10.93
2023-04-13T02:46:28.909Z,12.27
2023-04-13T02:48:59.829Z,11.48
2023-04-13T02:51:29.546Z,14.73
2023-04-13T02:54:00.614Z,13.55
2023-04-13T02:56:32.422Z,11.07
2023-04-13T02:59:06.147Z,13.23
2023-04-13T03:01:35.904Z,12.32
2023-04-13T03:04:05.657Z,13.20
2023-04-13T03:06:36.630Z,14.52
2023-04-13T03:09:07.322Z,9.13
2023-04-13T03:11:36.931Z,8.75
2023-04-13T03:14:06.737Z,10.45
2023-04-13T03:16:36.479Z,7.10
2023-04-13T03:19:07.036Z,8.10
2023-04-13T03:21:37.134Z,12.95
2023-04-13T03:24:08.241Z,14.75
2023-04-13T03:26:38.963Z,7.47
2023-04-13T03:29:08.586Z,12.23
2023-04-13T03:31:41.196Z,8.68
2023-04-13T03:34:10.963Z,12.15
2023-04-13T03:36:40.578Z,8.15
2023-04-13T03:39:10.203Z,9.23
2023-04-13T03:41:41.028Z,5.88
2023-04-13T03:44:10.922Z,9.27
2023-04-13T03:46:41.805Z,8.18
2023-04-13T03:49:13.632Z,6.47
2023-04-13T03:51:46.052Z,9.07
2023-04-13T03:54:15.713Z,6.13
2023-04-13T03:56:45.789Z,6.60
2023-04-13T03:59:18.708Z,7.70
2023-04-13T04:01:48.527Z,9.02
2023-04-13T04:04:18.298Z,12.20
2023-04-13T04:06:49.662Z,15.10
2023-04-13T04:09:20.468Z,11.35
2023-04-13T04:11:50.196Z,8.65
2023-04-13T04:14:20.058Z,8.75
2023-04-13T04:16:50.375Z,9.85
2023-04-13T04:19:23.775Z,9.88
2023-04-13T04:21:54.444Z,6.60
2023-04-13T04:24:29.065Z,11.18
2023-04-13T04:26:59.657Z,13.83
2023-04-13T04:29:39.109Z,8.45
2023-04-13T04:32:12.183Z,10.82
2023-04-13T04:34:42.616Z,9.07
2023-04-13T04:37:32.026Z,10.15
2023-04-13T04:40:02.454Z,8.57
2023-04-13T04:42:32.171Z,9.73
2023-04-13T04:45:02.640Z,8.07
2023-04-13T04:47:33.760Z,14.10
2023-04-13T04:50:03.461Z,7.60
2023-04-13T04:52:42.051Z,8.00
2023-04-13T04:55:12.252Z,8.40
2023-04-13T04:57:41.906Z,11.73
2023-04-13T05:00:17.378Z,7.35
2023-04-13T05:05:17.316Z,7.38
2023-04-13T05:07:47.660Z,9.45
2023-04-13T05:10:18.043Z,9.00
2023-04-13T05:12:48.489Z,9.30
2023-04-13T05:15:18.185Z,6.72
2023-04-13T05:17:48.937Z,7.40
2023-04-13T05:20:19.382Z,9.45
2023-04-13T05:22:49.175Z,9.07
2023-04-13T05:25:18.990Z,6.57
2023-04-13T05:27:48.719Z,34.47
2023-04-13T05:30:18.567Z,37.78
2023-04-13T05:32:48.470Z,45.67
2023-04-13T05:35:18.617Z,42.45
2023-04-13T05:37:48.721Z,32.42
2023-04-13T05:40:18.666Z,39.85
2023-04-13T05:42:51.708Z,22.70
2023-04-13T05:45:22.029Z,18.30
2023-04-13T05:47:51.811Z,24.67
2023-04-13T05:50:21.836Z,27.17
2023-04-13T05:52:51.934Z,17.17
2023-04-13T05:55:23.518Z,23.10
2023-04-13T05:57:53.410Z,17.35
2023-04-13T06:00:23.406Z,15.50
2023-04-13T06:02:53.733Z,14.52
2023-04-13T06:05:23.889Z,17.45
2023-04-13T06:07:54.562Z,17.67
2023-04-13T06:10:24.767Z,17.05
2023-04-13T06:12:55.962Z,11.63
2023-04-13T06:15:26.957Z,10.30
2023-04-13T06:17:59.484Z,13.50
2023-04-13T06:20:29.309Z,12.73
2023-04-13T06:22:59.338Z,8.25
2023-04-13T06:25:30.274Z,14.48
2023-04-13T06:28:01.985Z,7.63
2023-04-13T06:30:35.713Z,7.68
2023-04-13T06:33:05.849Z,8.30
2023-04-13T06:35:35.562Z,5.95
2023-04-13T06:38:05.487Z,5.57
2023-04-13T06:40:39.068Z,3.47
2023-04-13T06:43:18.953Z,6.10
2023-04-13T06:46:03.774Z,6.15
2023-04-13T06:48:33.437Z,5.30
2023-04-13T06:51:03.176Z,5.43
2023-04-13T06:53:33.105Z,5.43
2023-04-13T06:56:02.809Z,4.78
2023-04-13T06:58:32.948Z,3.70
2023-04-13T07:01:02.752Z,6.72
2023-04-13T07:03:34.108Z,5.15
2023-04-13T07:06:04.192Z,3.47
2023-04-13T07:08:33.883Z,5.60
2023-04-13T07:11:04.950Z,4.80
2023-04-13T07:13:34.696Z,7.97
2023-04-13T07:16:05.457Z,5.57
2023-04-13T07:18:36.075Z,4.65
2023-04-13T07:21:06.105Z,5.35
2023-04-13T07:23:36.320Z,7.88
2023-04-13T07:26:06.364Z,7.90
2023-04-13T07:28:36.152Z,3.60
2023-04-13T07:31:10.311Z,3.63
2023-04-13T07:33:40.406Z,7.15
2023-04-13T07:36:10.593Z,7.97
2023-04-13T07:38:40.289Z,6.15
2023-04-13T07:41:10.031Z,3.85
2023-04-13T07:43:39.715Z,4.75
2023-04-13T07:46:14.142Z,7.13
2023-04-13T07:48:58.456Z,3.33
2023-04-13T07:51:28.721Z,5.07
2023-04-13T07:53:58.709Z,2.95
2023-04-13T07:56:29.091Z,5.25
2023-04-13T07:58:59.150Z,7.22
2023-04-13T08:01:29.898Z,8.45
2023-04-13T08:03:59.867Z,7.35
2023-04-13T08:06:30.154Z,6.25
2023-04-13T08:09:00.543Z,6.13
2023-04-13T08:11:30.394Z,7.78
2023-04-13T08:14:00.216Z,4.80
2023-04-13T08:16:35.306Z,4.03
2023-04-13T08:19:05.452Z,5.43
2023-04-13T08:21:36.090Z,6.95
2023-04-13T08:24:05.882Z,5.13
2023-04-13T08:26:36.553Z,6.60
2023-04-13T08:29:06.643Z,5.00
2023-04-13T08:31:36.386Z,2.83
2023-04-13T08:34:06.320Z,9.60
2023-04-13T08:36:36.028Z,4.63
2023-04-13T08:39:06.937Z,7.07
2023-04-13T08:41:38.564Z,5.68
2023-04-13T08:44:11.741Z,3.80
2023-04-13T08:46:42.745Z,5.70
2023-04-13T08:49:14.022Z,6.93
2023-04-13T08:51:45.811Z,5.68
2023-04-13T08:54:17.572Z,5.80
2023-04-13T08:56:49.396Z,6.80
2023-04-13T08:59:19.472Z,7.72
2023-04-13T09:01:51.462Z,7.70
2023-04-13T09:04:21.813Z,6.15
2023-04-13T09:06:52.927Z,3.75
2023-04-13T09:09:22.899Z,3.72
2023-04-13T09:11:53.057Z,7.18
2023-04-13T09:14:24.420Z,2.60
2023-04-13T09:16:54.164Z,4.95
2023-04-13T09:19:34.097Z,5.90
2023-04-13T09:22:18.685Z,6.78
2023-04-13T09:24:49.023Z,5.68
2023-04-13T09:27:22.019Z,7.25
2023-04-13T09:29:53.198Z,2.85
2023-04-13T09:32:28.207Z,5.68
2023-04-13T09:35:06.387Z,4.80
2023-04-13T09:37:36.621Z,4.07
2023-04-13T09:40:16.137Z,4.97
2023-04-13T09:43:02.610Z,1.80
2023-04-13T09:45:40.267Z,2.75
2023-04-13T09:48:20.950Z,8.27
2023-04-13T09:51:03.718Z,10.45
2023-04-13T09:53:48.769Z,4.38
2023-04-13T09:56:19.048Z,5.73
2023-04-13T09:58:49.899Z,3.83
2023-04-13T10:01:19.558Z,5.30
2023-04-13T10:03:49.531Z,3.80
2023-04-13T10:06:22.502Z,5.93
2023-04-13T10:08:52.213Z,3.28
2023-04-13T10:11:22.987Z,6.22
2023-04-13T10:13:58.312Z,7.40
2023-04-13T10:16:40.216Z,4.25
2023-04-13T10:19:17.572Z,4.00
2023-04-13T10:21:47.817Z,3.13
2023-04-13T10:24:17.616Z,6.05
2023-04-13T10:26:47.376Z,6.43
2023-04-13T10:29:18.997Z,5.65
2023-04-13T10:31:52.967Z,4.72
2023-04-13T10:34:33.810Z,3.67
2023-04-13T10:37:08.449Z,2.58
2023-04-13T10:39:40.012Z,10.13
2023-04-13T10:42:15.973Z,5.30
2023-04-13T10:44:54.044Z,4.97
2023-04-13T10:47:26.646Z,4.68
2023-04-13T10:49:57.904Z,6.18
2023-04-13T10:52:28.588Z,6.90
2023-04-13T10:54:59.317Z,4.25
2023-04-13T10:57:28.958Z,5.05
2023-04-13T10:59:59.510Z,8.68
2023-04-13T11:02:33.571Z,3.97
2023-04-13T11:05:03.558Z,5.65
2023-04-13T11:07:35.290Z,6.03
2023-04-13T11:10:05.632Z,4.68
2023-04-13T11:12:36.825Z,3.95
2023-04-13T11:15:07.015Z,4.68
2023-04-13T11:17:36.753Z,6.63
2023-04-13T11:20:11.798Z,4.47
2023-04-13T11:22:47.389Z,5.15
2023-04-13T11:25:18.210Z,6.07
2023-04-13T11:27:51.548Z,5.25
2023-04-13T11:30:25.236Z,4.28
2023-04-13T11:32:59.923Z,5.13
2023-04-13T11:35:29.680Z,7.70
2023-04-13T11:38:00.212Z,3.80
2023-04-13T11:40:29.977Z,3.22
2023-04-13T11:43:00.237Z,6.07
2023-04-13T11:45:30.948Z,3.72
2023-04-13T11:48:06.849Z,4.60
2023-04-13T11:50:36.596Z,4.07
2023-04-13T11:53:06.674Z,7.53
2023-04-13T11:55:51.881Z,4.35
2023-04-13T11:58:24.486Z,7.68
2023-04-13T12:00:58.327Z,5.10
2023-04-13T12:03:47.090Z,5.18
2023-04-13T12:06:23.459Z,7.85
2023-04-13T12:09:09.364Z,5.03
2023-04-13T12:11:50.021Z,5.18
2023-04-13T12:17:06.148Z,5.13
2023-04-13T12:19:47.056Z,3.90
2023-04-13T12:22:20.355Z,7.35
2023-04-13T12:24:51.087Z,7.35
2023-04-13T12:27:21.409Z,6.03
2023-04-13T12:29:51.958Z,6.78
2023-04-13T12:32:21.813Z,7.45
2023-04-13T12:34:51.910Z,5.60
2023-04-13T12:37:21.985Z,4.93
2023-04-13T12:39:51.947Z,6.60
2023-04-13T12:42:21.540Z,5.05
2023-04-13T12:44:51.201Z,4.20
2023-04-13T12:47:20.947Z,6.78
2023-04-13T12:49:51.016Z,6.50
2023-04-13T12:52:21.699Z,5.47
2023-04-13T12:54:51.444Z,6.53
2023-04-13T12:57:21.106Z,6.72
2023-04-13T12:59:50.709Z,5.72
2023-04-13T13:02:22.353Z,5.75
2023-04-13T13:04:54.000Z,6.30
2023-04-13T13:07:24.998Z,7.93
2023-04-13T13:09:56.215Z,7.28
2023-04-13T13:12:31.425Z,6.93
2023-04-13T13:15:03.146Z,6.50
2023-04-13T13:17:33.509Z,4.45
2023-04-13T13:20:03.547Z,6.63
2023-04-13T13:22:34.087Z,8.02
2023-04-13T13:25:03.683Z,6.38
2023-04-13T13:28:05.388Z,6.32
2023-04-13T13:30:23.397Z,6.10
2023-04-13T13:32:53.513Z,5.05
2023-04-13T13:35:23.834Z,6.57
2023-04-13T13:37:53.938Z,2.70
2023-04-13T13:40:23.971Z,5.80
2023-04-13T13:42:56.248Z,6.78
2023-04-13T13:45:26.059Z,6.03
2023-04-13T13:47:56.196Z,5.40
2023-04-13T13:50:25.976Z,5.70
2023-04-13T13:53:03.846Z,6.72
2023-04-13T13:55:34.501Z,5.47
2023-04-13T13:58:04.900Z,10.38
2023-04-13T14:00:34.655Z,7.25
2023-04-13T14:03:04.842Z,6.50
2023-04-13T14:05:34.577Z,8.00
2023-04-13T14:08:04.280Z,6.07
2023-04-13T14:10:33.938Z,6.88
2023-04-13T14:13:03.639Z,7.82
2023-04-13T14:15:33.379Z,4.95
2023-04-13T14:18:10.682Z,6.07
2023-04-13T14:20:41.399Z,6.00
2023-04-13T14:23:11.209Z,7.72
2023-04-13T14:25:42.640Z,5.95
2023-04-13T14:28:12.645Z,6.50
2023-04-13T14:30:42.375Z,7.00
2023-04-13T14:33:12.152Z,4.82
2023-04-13T14:35:41.942Z,5.78
2023-04-13T14:38:13.335Z,6.65
2023-04-13T14:40:43.105Z,5.68
2023-04-13T14:43:13.537Z,8.85
2023-04-13T14:45:43.234Z,3.17
2023-04-13T14:48:13.307Z,7.03
2023-04-13T14:50:46.130Z,5.65
2023-04-13T14:53:15.799Z,7.63
2023-04-13T14:55:48.020Z,3.85
2023-04-13T14:58:17.669Z,7.40
2023-04-13T15:00:47.314Z,5.93
2023-04-13T15:03:18.158Z,6.63
2023-04-13T15:05:49.635Z,7.75
2023-04-13T15:08:21.130Z,4.70
2023-04-13T15:10:50.803Z,4.32
2023-04-13T15:13:20.460Z,6.75
2023-04-13T15:15:50.342Z,8.35
2023-04-13T15:18:20.400Z,9.07
2023-04-13T15:20:50.178Z,4.93
2023-04-13T15:23:20.361Z,7.18
2023-04-13T15:25:50.669Z,7.53
2023-04-13T15:28:20.391Z,5.85
2023-04-13T15:30:51.152Z,7.53
2023-04-13T15:33:21.594Z,7.22
2023-04-13T15:35:52.765Z,5.63
2023-04-13T15:38:22.510Z,6.32
2023-04-13T15:40:52.164Z,6.88
2023-04-13T15:43:22.256Z,5.88
2023-04-13T15:45:52.387Z,6.40
2023-04-13T15:48:22.198Z,8.55
2023-04-13T15:50:59.703Z,4.63
2023-04-13T15:53:30.073Z,8.02
2023-04-13T15:56:00.112Z,9.57
2023-04-13T15:58:30.592Z,5.10
2023-04-13T16:01:11.005Z,6.45
2023-04-13T16:03:42.151Z,7.10
2023-04-13T16:06:12.474Z,8.85
2023-04-13T16:08:42.171Z,7.50
2023-04-13T16:11:12.138Z,6.13
2023-04-13T16:13:49.381Z,6.20
2023-04-13T16:16:23.162Z,6.53
2023-04-13T16:18:53.054Z,7.40
2023-04-13T16:21:24.706Z,6.15
2023-04-13T16:23:56.349Z,5.50
2023-04-13T16:26:26.172Z,6.18
2023-04-13T16:28:55.943Z,7.03
2023-04-13T16:31:25.803Z,5.70
2023-04-13T16:33:56.043Z,4.45
2023-04-13T16:36:26.770Z,5.30
2023-04-13T16:38:56.500Z,7.00
2023-04-13T16:41:26.231Z,5.55
2023-04-13T16:43:55.891Z,7.50
2023-04-13T16:46:25.592Z,3.60
2023-04-13T16:48:55.312Z,5.90
2023-04-13T16:51:26.907Z,5.53
2023-04-13T16:53:56.672Z,4.72
2023-04-13T16:56:31.433Z,7.50
2023-04-13T16:59:02.219Z,4.45
2023-04-13T17:01:33.628Z,4.90
2023-04-13T17:04:04.476Z,5.25
2023-04-13T17:06:36.472Z,5.35
2023-04-13T17:09:09.670Z,4.07
2023-04-13T17:11:39.423Z,4.75
2023-04-13T17:14:09.788Z,4.95
2023-04-13T17:16:42.652Z,5.53
2023-04-13T17:19:13.268Z,4.45
2023-04-13T17:21:42.987Z,7.63
2023-04-13T17:24:12.726Z,6.68
2023-04-13T17:26:42.950Z,6.85
2023-04-13T17:29:12.626Z,5.95
2023-04-13T17:31:45.415Z,6.13
2023-04-13T17:34:15.273Z,5.22
2023-04-13T17:36:44.975Z,6.90
2023-04-13T17:39:14.646Z,3.50
2023-04-13T17:41:44.811Z,3.03
2023-04-13T17:44:14.900Z,3.95
2023-04-13T17:46:44.718Z,3.47
2023-04-13T17:49:14.851Z,5.15
2023-04-13T17:51:49.266Z,4.70
2023-04-13T17:54:19.037Z,5.28
2023-04-13T17:56:49.392Z,5.85
2023-04-13T17:59:19.112Z,5.75
2023-04-13T18:01:49.373Z,7.40
2023-04-13T18:04:19.279Z,3.28
2023-04-13T18:06:49.459Z,5.03
2023-04-13T18:09:20.007Z,6.10
2023-04-13T18:11:50.305Z,4.15
2023-04-13T18:14:20.008Z,3.20
2023-04-13T18:16:49.657Z,4.68
2023-04-13T18:19:19.640Z,3.15
2023-04-13T18:21:49.357Z,6.47
2023-04-13T18:24:19.469Z,3.75
2023-04-13T18:26:49.861Z,4.57
2023-04-13T18:29:19.858Z,4.82
2023-04-13T18:31:49.610Z,6.63
2023-04-13T18:34:19.693Z,6.53
2023-04-13T18:36:49.378Z,6.97
2023-04-13T18:39:19.618Z,5.88
2023-04-13T18:41:50.349Z,5.70
2023-04-13T18:44:20.021Z,5.22
2023-04-13T18:46:50.470Z,7.88
2023-04-13T18:49:20.808Z,5.32
2023-04-13T18:51:50.436Z,5.57
2023-04-13T18:54:20.106Z,5.50
2023-04-13T18:56:52.599Z,4.78
2023-04-13T18:59:25.143Z,5.40
2023-04-13T19:01:54.909Z,4.70
2023-04-13T19:04:25.626Z,5.55
2023-04-13T19:06:55.313Z,3.83
2023-04-13T19:09:24.979Z,4.38
2023-04-13T19:11:55.779Z,9.40
2023-04-13T19:14:25.489Z,4.70
2023-04-13T19:16:55.698Z,4.80
2023-04-13T19:19:25.710Z,5.22
2023-04-13T19:21:57.403Z,3.65
2023-04-13T19:24:27.443Z,10.52
2023-04-13T19:26:57.997Z,5.22
2023-04-13T19:29:31.598Z,5.00
2023-04-13T19:32:02.222Z,5.70
2023-04-13T19:34:31.942Z,5.07
2023-04-13T19:37:02.103Z,3.28
2023-04-13T19:39:31.781Z,5.70
2023-04-13T19:42:01.823Z,6.25
2023-04-13T19:44:31.516Z,5.25
2023-04-13T19:47:01.211Z,6.22
2023-04-13T19:49:30.939Z,8.25
2023-04-13T19:52:01.210Z,8.85
2023-04-13T19:54:31.541Z,4.60
2023-04-13T19:57:01.183Z,5.82
2023-04-13T19:59:31.593Z,6.25
2023-04-13T20:02:01.298Z,7.68
2023-04-13T20:04:31.571Z,5.85
2023-04-13T20:07:02.173Z,4.63
2023-04-13T20:09:32.405Z,7.28
2023-04-13T20:12:02.320Z,3.72
2023-04-13T20:14:32.499Z,5.43
2023-04-13T20:17:02.424Z,4.38
2023-04-13T20:19:37.767Z,6.45
2023-04-13T20:22:08.597Z,4.72
2023-04-13T20:24:38.274Z,5.00
2023-04-13T20:27:07.922Z,3.10
2023-04-13T20:29:38.175Z,5.53
2023-04-13T20:32:08.767Z,3.78
2023-04-13T20:34:42.109Z,5.15
2023-04-13T20:37:13.598Z,7.07
2023-04-13T20:39:52.250Z,5.40
2023-04-13T20:42:22.768Z,2.60
2023-04-13T20:45:01.593Z,3.60
2023-04-13T20:47:32.993Z,6.97
2023-04-13T20:50:04.125Z,3.05
2023-04-13T20:52:33.786Z,4.45
2023-04-13T20:55:03.877Z,3.13
2023-04-13T20:57:34.451Z,3.70
2023-04-13T21:00:15.727Z,4.43
2023-04-13T21:02:47.011Z,4.55
2023-04-13T21:05:16.895Z,3.80
2023-04-13T21:07:46.829Z,5.03
2023-04-13T21:10:19.308Z,5.20
2023-04-13T21:12:48.955Z,5.10
2023-04-13T21:15:18.667Z,6.60
2023-04-13T21:17:50.388Z,7.82
2023-04-13T21:20:20.187Z,4.47
2023-04-13T21:22:49.923Z,8.48
2023-04-13T21:25:19.602Z,6.70
2023-04-13T21:27:49.619Z,5.25
2023-04-13T21:30:19.334Z,5.05
2023-04-13T21:32:49.125Z,4.22
2023-04-13T21:35:18.949Z,4.20
2023-04-13T21:37:48.578Z,7.97
2023-04-13T21:40:19.668Z,4.40
2023-04-13T21:42:49.316Z,8.20
2023-04-13T21:45:18.962Z,7.25
2023-04-13T21:47:49.418Z,4.65
2023-04-13T21:50:19.150Z,6.28
2023-04-13T21:52:49.194Z,7.25
2023-04-13T21:55:21.986Z,5.72
2023-04-13T21:57:51.807Z,4.60
2023-04-13T22:00:22.351Z,5.22
2023-04-13T22:02:54.157Z,3.17
2023-04-13T22:05:23.871Z,9.13
2023-04-13T22:07:53.517Z,6.53
2023-04-13T22:10:23.273Z,3.78
2023-04-13T22:12:52.983Z,5.30
2023-04-13T22:15:22.795Z,4.85
2023-04-13T22:17:52.589Z,4.80
2023-04-13T22:20:22.803Z,7.30
2023-04-13T22:22:52.574Z,4.90
2023-04-13T22:25:27.074Z,5.63
2023-04-13T22:27:57.203Z,7.20
2023-04-13T22:30:27.940Z,9.60
2023-04-13T22:33:01.294Z,4.70
2023-04-13T22:35:31.017Z,4.43
2023-04-13T22:38:03.508Z,7.57
2023-04-13T22:40:33.268Z,4.10
2023-04-13T22:43:05.897Z,5.70
2023-04-13T22:45:39.022Z,4.95
2023-04-13T22:48:11.569Z,5.95
2023-04-13T22:50:41.344Z,5.07
2023-04-13T22:53:16.976Z,6.88
2023-04-13T22:55:48.334Z,4.45
2023-04-13T22:58:19.693Z,4.07
2023-04-13T23:00:49.994Z,3.65
2023-04-13T23:03:20.361Z,6.03
2023-04-13T23:05:50.213Z,6.10
2023-04-13T23:08:19.928Z,4.20
2023-04-13T23:10:51.555Z,9.73
2023-04-13T23:13:22.304Z,3.53
2023-04-13T23:15:52.062Z,5.85
2023-04-13T23:18:24.548Z,4.07
2023-04-13T23:20:54.313Z,7.32
2023-04-13T23:23:25.608Z,7.75
2023-04-13T23:25:57.361Z,7.80
2023-04-13T23:28:27.406Z,9.52
2023-04-13T23:31:07.848Z,12.32
2023-04-13T23:33:38.007Z,10.02
2023-04-13T23:36:08.590Z,15.68
2023-04-13T23:38:38.438Z,7.65
2023-04-13T23:41:08.252Z,14.15
2023-04-13T23:43:38.562Z,10.88
2023-04-13T23:46:08.857Z,13.23
2023-04-13T23:48:38.635Z,10.68
2023-04-13T23:51:08.585Z,11.15
2023-04-13T23:53:38.296Z,12.75
2023-04-13T23:56:11.539Z,8.82
2023-04-13T23:58:41.186Z,8.82
